バンギ・ムポコ国際空港の過去48時間の天気

バンギ・ムポコ国際空港 (Bangui)

現在時刻: 1/24 01:48 WAT (1/24 00:48 UTC) 以下の時間は現地時間です。

過去48時間のMETAR気象情報
時間 風向 風速(m/s) 視程 気温(℃) 湿度(%) 気圧(hPa) 天気現象
24 01:00 西北西 2 7000m 19 73 1011
24 00:00 静穏 0 7000m 21 73 1011
23 23:00 西北西 2 7000m 23 50 1011
23 22:00 不定 2 7000m 24 44 1011
23 21:00 西北西 2 3000m 25 39 1011 煙 煙霧
FEFF 240000Z 30003KT 7000 NSC 19/14 Q1011 NOSIG
FEFF 232300Z 00000KT 7000 NSC 21/16 Q1011 NOSIG
FEFF 232200Z 30004KT 7000 NSC 23/12 Q1011 NOSIG
FEFF 232100Z VRB03KT 7000 NSC 24/11 Q1011 NOSIG
FEFF 232000Z 30004KT 3000 HZFU NSC 25/10 Q1011 BECMG 7000 NSW